Time;durP1;ratioP1;P1;durP2;ratioP2;P2;SDS_P1;SDS_P2;PMS_P1;PMS_P2;Temp;Humidity;BMP_temperature;BMP_pressure;BME280_temperature;BME280_humidity;BME280_pressure;Samples;Min_cycle;Max_cycle;Signal;HPM_P1;HPM_P2
2024/01/24 00:01:33;;;;;;;6.10;1.73;;;;;;;12.22;50.40;98245.34;5034271;28;20520;-71
2024/01/24 00:03:59;;;;;;;5.23;1.70;;;;;;;12.06;51.00;98249.31;5040693;28;20917;-69
2024/01/24 00:06:25;;;;;;;6.50;1.70;;;;;;;12.23;50.52;98245.19;5040685;28;20281;-69
2024/01/24 00:08:50;;;;;;;7.90;1.83;;;;;;;12.25;50.89;98258.19;5054595;28;20430;-70
2024/01/24 00:11:16;;;;;;;5.23;2.10;;;;;;;12.40;50.51;98238.41;5052762;28;20191;-69
2024/01/24 00:13:42;;;;;;;3.93;1.23;;;;;;;12.36;50.79;98237.00;5057123;28;20211;-70
2024/01/24 00:16:07;;;;;;;5.50;1.07;;;;;;;12.44;50.25;98244.22;5053360;28;20305;-69
2024/01/24 00:18:33;;;;;;;5.70;1.67;;;;;;;12.32;50.43;98240.06;5052401;28;20718;-70
2024/01/24 00:20:59;;;;;;;6.83;1.37;;;;;;;12.34;50.54;98223.22;5048210;28;20187;-70
2024/01/24 00:23:24;;;;;;;8.33;1.60;;;;;;;12.36;50.69;98226.50;5052620;28;20290;-69
2024/01/24 00:25:50;;;;;;;5.73;1.50;;;;;;;12.43;50.81;98219.72;5052694;28;20529;-69
2024/01/24 00:28:16;;;;;;;4.27;1.37;;;;;;;12.40;50.94;98206.84;5052027;28;20651;-69
2024/01/24 00:30:43;;;;;;;6.73;1.30;;;;;;;12.57;50.43;98207.13;5059722;28;21068;-69
2024/01/24 00:33:08;;;;;;;5.13;1.40;;;;;;;12.62;50.31;98204.06;5051921;28;20207;-71
2024/01/24 00:35:34;;;;;;;3.30;1.70;;;;;;;12.55;50.46;98215.13;5048525;28;20497;-69
2024/01/24 00:37:59;;;;;;;3.93;1.20;;;;;;;12.33;51.12;98194.41;5048886;28;20550;-70
2024/01/24 00:40:25;;;;;;;5.80;1.37;;;;;;;12.57;50.59;98196.59;5068675;28;20717;-68
2024/01/24 00:42:50;;;;;;;4.17;1.43;;;;;;;12.58;50.63;98209.59;5056979;28;20286;-70
2024/01/24 00:45:15;;;;;;;7.90;2.00;;;;;;;12.46;50.90;98187.06;5060466;28;20270;-68
2024/01/24 00:47:41;;;;;;;5.10;1.40;;;;;;;12.39;51.35;98194.69;5054635;28;20226;-68
2024/01/24 00:50:07;;;;;;;2.60;1.20;;;;;;;12.72;50.67;98194.34;5054787;28;20723;-69
2024/01/24 00:52:33;;;;;;;3.50;1.37;;;;;;;12.70;50.53;98191.88;5050786;28;20578;-70
2024/01/24 00:54:58;;;;;;;4.40;1.10;;;;;;;12.72;50.66;98205.72;5045382;28;20432;-70
2024/01/24 00:57:24;;;;;;;3.90;1.47;;;;;;;12.85;50.49;98199.34;5049602;28;20761;-69
2024/01/24 00:59:49;;;;;;;4.57;1.13;;;;;;;12.91;50.19;98198.75;5050800;28;20187;-69
2024/01/24 01:02:14;;;;;;;2.27;1.20;;;;;;;12.88;50.17;98191.13;5057922;28;20823;-69
2024/01/24 01:04:40;;;;;;;4.63;1.50;;;;;;;12.92;50.31;98200.41;5038419;28;20206;-70
2024/01/24 01:07:05;;;;;;;8.53;1.60;;;;;;;13.03;50.00;98197.59;5039958;28;20329;-70
2024/01/24 01:09:31;;;;;;;3.90;1.50;;;;;;;13.03;49.82;98194.97;5047756;28;20190;-69
2024/01/24 01:11:57;;;;;;;5.30;1.20;;;;;;;13.13;49.94;98202.00;5052768;28;20215;-70
2024/01/24 01:14:22;;;;;;;6.93;1.60;;;;;;;13.15;49.87;98210.56;5057988;28;20507;-70
2024/01/24 01:16:48;;;;;;;4.60;1.17;;;;;;;12.95;50.14;98199.28;5052565;28;20651;-69
2024/01/24 01:19:13;;;;;;;3.97;1.40;;;;;;;13.05;50.03;98200.91;5046786;28;20192;-71
2024/01/24 01:21:40;;;;;;;4.83;1.27;;;;;;;13.13;49.91;98197.56;5055544;28;20194;-69
2024/01/24 01:24:07;;;;;;;3.53;1.00;;;;;;;13.14;49.68;98199.22;5068083;28;20201;-68
2024/01/24 01:26:32;;;;;;;4.23;1.00;;;;;;;13.13;50.12;98192.31;5040019;28;20944;-71
2024/01/24 01:28:58;;;;;;;4.60;1.27;;;;;;;13.17;49.56;98177.88;5049824;28;20508;-68
2024/01/24 01:31:24;;;;;;;4.33;1.23;;;;;;;13.20;49.51;98174.94;5058015;28;20219;-72
2024/01/24 01:33:49;;;;;;;4.87;1.50;;;;;;;13.23;49.59;98187.00;5047219;28;20192;-67
2024/01/24 01:36:14;;;;;;;4.13;1.30;;;;;;;13.21;49.94;98178.44;5047510;28;20306;-69
2024/01/24 01:38:40;;;;;;;8.03;1.43;;;;;;;13.18;50.07;98173.44;5059041;28;20597;-69
2024/01/24 01:41:05;;;;;;;3.63;1.17;;;;;;;13.26;50.24;98165.63;5054469;28;20195;-68
2024/01/24 01:43:31;;;;;;;3.93;1.13;;;;;;;13.12;50.33;98187.16;5049461;28;20195;-68
2024/01/24 01:46:01;;;;;;;3.50;1.10;;;;;;;13.15;50.23;98189.53;5050011;28;20684;-71
2024/01/24 01:48:27;;;;;;;4.17;1.33;;;;;;;13.19;50.24;98178.56;5047673;28;20237;-69
2024/01/24 01:50:53;;;;;;;2.37;1.00;;;;;;;13.25;50.12;98171.88;5054900;28;20429;-69
2024/01/24 01:53:20;;;;;;;3.77;1.20;;;;;;;13.27;50.21;98162.03;5057913;28;20472;-69
2024/01/24 01:55:45;;;;;;;3.80;1.23;;;;;;;13.28;50.34;98154.97;5050822;28;20548;-69
2024/01/24 01:58:10;;;;;;;2.43;0.90;;;;;;;13.34;50.10;98173.66;5043598;28;21014;-70
2024/01/24 02:00:36;;;;;;;8.93;1.50;;;;;;;13.36;49.81;98166.41;5047847;28;21625;-70
2024/01/24 02:03:02;;;;;;;5.63;1.53;;;;;;;13.37;49.84;98168.06;5035395;28;20183;-68
2024/01/24 02:05:28;;;;;;;5.60;0.90;;;;;;;13.27;50.32;98166.47;5040601;28;20426;-69
2024/01/24 02:07:53;;;;;;;5.23;1.30;;;;;;;13.26;50.33;98170.09;5051752;28;20193;-71
2024/01/24 02:10:19;;;;;;;4.90;1.27;;;;;;;13.36;50.21;98171.69;5054193;28;20930;-69
2024/01/24 02:12:44;;;;;;;3.10;1.23;;;;;;;13.41;49.96;98173.09;5050782;28;20215;-67
2024/01/24 02:15:10;;;;;;;4.67;1.20;;;;;;;13.38;50.00;98176.81;5049082;28;20210;-68
2024/01/24 02:17:35;;;;;;;5.83;1.50;;;;;;;13.17;50.58;98167.34;5048621;28;20218;-69
2024/01/24 02:20:01;;;;;;;5.00;1.30;;;;;;;13.34;50.21;98157.84;5049304;28;20194;-69
2024/01/24 02:22:27;;;;;;;4.80;1.40;;;;;;;13.27;50.32;98158.59;5055318;28;20194;-69
2024/01/24 02:24:52;;;;;;;5.53;1.30;;;;;;;13.37;50.46;98162.00;5055582;28;20435;-69
2024/01/24 02:27:17;;;;;;;3.70;1.37;;;;;;;13.34;50.17;98157.84;5046830;28;20211;-69
2024/01/24 02:29:43;;;;;;;3.10;1.00;;;;;;;13.32;50.45;98164.22;5048578;28;20282;-69
2024/01/24 02:32:08;;;;;;;1.73;1.07;;;;;;;13.13;50.89;98170.41;5058883;28;20218;-68
2024/01/24 02:34:34;;;;;;;5.03;1.30;;;;;;;13.31;50.82;98167.81;5048282;28;20574;-69
2024/01/24 02:36:59;;;;;;;6.77;1.10;;;;;;;13.30;50.82;98153.84;5052730;28;20210;-70
2024/01/24 02:39:25;;;;;;;2.47;1.27;;;;;;;13.24;51.10;98151.78;5054512;28;20183;-69
2024/01/24 02:41:51;;;;;;;3.10;1.30;;;;;;;13.32;50.98;98146.63;5056666;28;20182;-69
2024/01/24 02:44:16;;;;;;;6.00;1.63;;;;;;;13.34;50.88;98136.78;5053078;28;20460;-69
2024/01/24 02:46:42;;;;;;;4.40;1.23;;;;;;;13.25;51.46;98134.22;5040275;28;20714;-69
2024/01/24 02:49:07;;;;;;;2.93;0.90;;;;;;;13.27;51.42;98132.25;5046960;28;20186;-68
2024/01/24 02:51:33;;;;;;;2.63;1.10;;;;;;;13.26;51.20;98128.78;5042313;28;20800;-69
2024/01/24 02:53:58;;;;;;;8.10;1.47;;;;;;;13.31;51.40;98131.81;5053630;28;20670;-70
2024/01/24 02:56:24;;;;;;;2.60;0.90;;;;;;;13.32;51.75;98135.25;5048995;28;20215;-69
2024/01/24 02:58:49;;;;;;;5.53;1.07;;;;;;;13.17;52.23;98129.66;5057115;28;20190;-70
2024/01/24 03:01:15;;;;;;;7.40;1.20;;;;;;;13.35;51.91;98108.66;5048549;28;20279;-68
2024/01/24 03:03:41;;;;;;;5.17;1.30;;;;;;;13.29;52.13;98110.06;5057748;28;20650;-69
2024/01/24 03:06:07;;;;;;;5.23;1.20;;;;;;;13.28;52.42;98118.94;5050382;28;20987;-70
2024/01/24 03:08:58;;;;;;;3.67;1.20;;;;;;;13.00;53.20;98111.03;5052764;28;20426;-69
2024/01/24 03:15:13;;;;;;;3.97;1.30;;;;;;;13.36;52.52;98119.03;5048201;28;20461;-68
2024/01/24 03:17:39;;;;;;;3.50;1.10;;;;;;;13.30;52.67;98135.41;5046336;28;21001;-70
2024/01/24 03:20:05;;;;;;;4.33;1.57;;;;;;;13.30;52.75;98151.22;5052121;28;20536;-69
2024/01/24 03:22:30;;;;;;;5.07;1.27;;;;;;;13.40;52.84;98143.31;5044963;28;20214;-70
2024/01/24 03:24:56;;;;;;;1.60;0.90;;;;;;;13.37;52.86;98141.75;5050409;28;20433;-68
2024/01/24 03:27:21;;;;;;;2.83;1.10;;;;;;;13.47;52.86;98133.00;5050996;28;20216;-69
2024/01/24 03:29:48;;;;;;;4.60;1.07;;;;;;;13.49;52.91;98128.41;5048752;28;20214;-70
2024/01/24 03:32:13;;;;;;;3.10;1.03;;;;;;;13.44;53.01;98125.41;5047962;28;20210;-69
2024/01/24 03:34:38;;;;;;;3.40;1.00;;;;;;;13.48;52.93;98127.59;5048252;28;20483;-68
2024/01/24 03:37:04;;;;;;;2.23;1.13;;;;;;;13.51;53.04;98129.09;5047543;28;20253;-70
2024/01/24 03:39:29;;;;;;;3.83;1.27;;;;;;;13.55;52.74;98126.97;5047286;28;20219;-70
2024/01/24 03:41:55;;;;;;;3.13;1.40;;;;;;;13.57;52.76;98131.13;5051664;28;20225;-69
2024/01/24 03:44:20;;;;;;;2.63;1.20;;;;;;;13.59;52.65;98121.28;5047881;28;20285;-68
2024/01/24 03:46:46;;;;;;;5.47;1.10;;;;;;;13.62;52.79;98128.06;5046685;28;20540;-70
2024/01/24 03:49:11;;;;;;;5.60;1.20;;;;;;;13.64;53.07;98132.19;5042775;28;20543;-69
2024/01/24 03:51:36;;;;;;;7.07;2.07;;;;;;;13.68;53.18;98127.44;5048828;28;20239;-70
2024/01/24 03:54:02;;;;;;;3.33;1.03;;;;;;;13.66;53.12;98130.25;5042761;28;20196;-69
2024/01/24 03:56:27;;;;;;;7.07;1.90;;;;;;;13.71;52.87;98115.81;5055664;28;20210;-68
2024/01/24 03:58:53;;;;;;;3.10;1.20;;;;;;;13.71;52.61;98116.63;5046725;28;20215;-69
2024/01/24 04:01:18;;;;;;;5.30;1.10;;;;;;;13.65;53.47;98122.50;5042853;28;20223;-70
2024/01/24 04:03:44;;;;;;;3.47;1.10;;;;;;;13.70;53.11;98117.59;5055536;28;20187;-68
2024/01/24 04:06:09;;;;;;;1.30;0.87;;;;;;;13.75;53.17;98117.97;5040167;28;20280;-69
2024/01/24 04:08:35;;;;;;;3.67;0.93;;;;;;;13.85;52.92;98122.34;5043645;28;20324;-70
2024/01/24 04:11:00;;;;;;;4.10;1.57;;;;;;;13.87;52.92;98121.19;5039817;28;20198;-68
2024/01/24 04:13:26;;;;;;;3.53;1.23;;;;;;;13.87;53.05;98120.38;5047377;28;20321;-69
2024/01/24 04:15:51;;;;;;;1.90;1.30;;;;;;;13.91;53.06;98109.38;5044422;28;20246;-69
2024/01/24 04:18:16;;;;;;;4.23;1.20;;;;;;;13.90;53.51;98110.38;5051130;28;20270;-69
2024/01/24 04:20:42;;;;;;;6.93;1.37;;;;;;;13.91;53.15;98121.75;5050247;28;20186;-68
2024/01/24 04:23:07;;;;;;;4.27;1.30;;;;;;;13.90;53.24;98134.09;5046820;28;20187;-68
2024/01/24 04:25:33;;;;;;;6.00;1.10;;;;;;;13.93;53.24;98136.44;5057669;28;20268;-68
2024/01/24 04:27:58;;;;;;;3.87;1.10;;;;;;;13.90;53.64;98142.00;5050640;28;20198;-67
2024/01/24 04:30:24;;;;;;;5.17;1.70;;;;;;;13.93;53.49;98139.06;5051620;28;20293;-67
2024/01/24 04:32:49;;;;;;;3.70;1.10;;;;;;;13.97;53.56;98153.59;5037094;28;20290;-68
2024/01/24 04:35:14;;;;;;;1.87;0.93;;;;;;;13.92;54.12;98144.50;5048948;28;20198;-66
2024/01/24 04:37:40;;;;;;;4.23;1.20;;;;;;;13.91;54.37;98148.09;5053284;28;20722;-68
2024/01/24 04:40:06;;;;;;;4.50;1.17;;;;;;;13.97;54.04;98143.06;5048525;28;20209;-69
2024/01/24 04:42:32;;;;;;;2.80;1.20;;;;;;;14.01;54.07;98148.84;5053146;28;20212;-68
2024/01/24 04:44:57;;;;;;;3.60;1.30;;;;;;;14.00;54.55;98154.25;5046604;28;20437;-69
2024/01/24 04:47:23;;;;;;;4.50;1.17;;;;;;;14.04;54.68;98147.72;5049366;28;20215;-73
2024/01/24 04:49:48;;;;;;;2.70;1.17;;;;;;;14.00;54.88;98141.91;5052282;28;20186;-69
2024/01/24 04:52:13;;;;;;;6.37;1.43;;;;;;;14.01;55.13;98142.72;5044080;28;20287;-69
2024/01/24 04:54:41;;;;;;;3.63;1.40;;;;;;;14.11;54.84;98140.88;5045241;28;20187;-72
2024/01/24 04:57:06;;;;;;;5.33;1.40;;;;;;;14.13;54.84;98146.78;5039575;28;20218;-70
2024/01/24 04:59:32;;;;;;;8.23;1.77;;;;;;;14.08;55.14;98143.81;5046127;28;20425;-68
2024/01/24 05:01:57;;;;;;;5.63;1.50;;;;;;;13.98;55.53;98134.19;5039808;28;20183;-68
2024/01/24 05:04:23;;;;;;;3.67;1.33;;;;;;;14.07;55.39;98142.97;5055387;28;20197;-67
2024/01/24 05:06:49;;;;;;;3.10;1.37;;;;;;;14.11;55.48;98139.03;5055843;28;20703;-69
2024/01/24 05:09:14;;;;;;;2.07;1.27;;;;;;;14.17;55.33;98148.16;5052617;28;20187;-70
2024/01/24 05:11:41;;;;;;;3.27;1.43;;;;;;;14.21;55.12;98144.25;5062603;28;20212;-69
2024/01/24 05:14:07;;;;;;;7.00;1.60;;;;;;;14.25;55.25;98150.84;5045556;28;20252;-69
2024/01/24 05:16:32;;;;;;;3.13;1.30;;;;;;;14.16;55.79;98143.84;5047002;28;20460;-69
2024/01/24 05:18:57;;;;;;;3.00;1.07;;;;;;;14.12;56.00;98139.88;5052127;28;20187;-70
2024/01/24 05:21:23;;;;;;;2.53;1.20;;;;;;;14.21;55.98;98144.25;5056527;28;20283;-69
2024/01/24 05:23:50;;;;;;;3.40;1.50;;;;;;;14.14;56.01;98132.63;5056367;28;20213;-70
2024/01/24 05:26:16;;;;;;;1.83;1.30;;;;;;;14.21;56.02;98138.97;5049687;28;20221;-68
2024/01/24 05:28:41;;;;;;;5.07;1.60;;;;;;;14.19;56.21;98145.34;5033836;28;20434;-68
2024/01/24 05:31:07;;;;;;;5.43;1.77;;;;;;;14.36;55.80;98156.88;5052385;28;20197;-70
2024/01/24 05:33:33;;;;;;;6.00;1.63;;;;;;;14.37;55.93;98163.78;5061289;28;20667;-70
2024/01/24 05:35:59;;;;;;;5.00;1.60;;;;;;;14.37;55.96;98161.16;5057248;28;20210;-69
2024/01/24 05:38:24;;;;;;;4.17;1.80;;;;;;;14.36;56.13;98159.53;5051065;28;20421;-69
2024/01/24 05:40:50;;;;;;;3.20;1.30;;;;;;;14.39;56.04;98156.56;5054896;28;20307;-68
2024/01/24 05:43:15;;;;;;;3.83;1.57;;;;;;;14.40;56.01;98152.94;5044352;28;20229;-70
2024/01/24 05:45:41;;;;;;;4.10;1.17;;;;;;;14.37;56.51;98155.88;5056975;28;20683;-67
2024/01/24 05:48:06;;;;;;;3.10;1.20;;;;;;;14.41;56.38;98157.25;5045337;28;20187;-68
2024/01/24 05:50:31;;;;;;;2.67;1.20;;;;;;;14.43;56.50;98157.91;5061882;28;20194;-69
2024/01/24 05:52:58;;;;;;;3.83;1.40;;;;;;;14.23;57.23;98173.94;5051084;28;20242;-70
2024/01/24 05:55:23;;;;;;;3.80;1.53;;;;;;;14.28;57.07;98181.38;5047258;28;20191;-70
2024/01/24 05:57:49;;;;;;;2.43;1.10;;;;;;;14.49;56.66;98173.09;5049450;28;20491;-69
2024/01/24 06:00:14;;;;;;;2.90;1.40;;;;;;;14.57;56.57;98159.16;5049894;28;20226;-70
2024/01/24 06:02:41;;;;;;;4.10;1.17;;;;;;;14.36;57.73;98146.34;5049512;28;20187;-70
2024/01/24 06:05:07;;;;;;;2.80;1.30;;;;;;;14.39;57.34;98127.53;5037778;28;20191;-69
2024/01/24 06:07:33;;;;;;;7.50;1.77;;;;;;;14.53;57.05;98132.25;5043101;28;20452;-70
2024/01/24 06:09:58;;;;;;;2.87;1.27;;;;;;;14.46;57.30;98135.66;5055994;28;20524;-70
2024/01/24 06:12:24;;;;;;;5.57;1.40;;;;;;;14.45;57.45;98124.31;5054539;28;20207;-70
2024/01/24 06:14:49;;;;;;;3.93;1.67;;;;;;;14.54;57.22;98123.38;5048129;28;20273;-71
2024/01/24 06:17:16;;;;;;;3.10;1.40;;;;;;;14.26;58.34;98139.31;5053785;28;20237;-68
2024/01/24 06:19:43;;;;;;;5.83;1.30;;;;;;;14.27;58.40;98154.16;5057793;28;20191;-68
2024/01/24 06:22:08;;;;;;;2.03;1.00;;;;;;;14.33;58.65;98160.63;5052001;28;20421;-69
2024/01/24 06:24:35;;;;;;;2.50;1.23;;;;;;;14.48;58.27;98154.81;5048865;28;20433;-70
2024/01/24 06:27:00;;;;;;;5.33;1.30;;;;;;;14.62;57.81;98156.09;5042847;28;20222;-69
2024/01/24 06:29:26;;;;;;;3.67;1.10;;;;;;;14.37;58.52;98150.59;5045917;28;20425;-68
2024/01/24 06:31:51;;;;;;;2.40;1.23;;;;;;;14.62;58.10;98172.72;5035378;28;20183;-69
2024/01/24 06:34:17;;;;;;;2.93;1.43;;;;;;;14.70;57.85;98170.16;5042456;28;20634;-70
2024/01/24 06:36:42;;;;;;;7.03;1.50;;;;;;;14.75;57.65;98167.06;5041670;28;20673;-69
2024/01/24 06:39:09;;;;;;;3.30;1.70;;;;;;;14.78;57.70;98168.56;5054395;28;20191;-69
2024/01/24 06:41:35;;;;;;;2.57;1.17;;;;;;;14.56;58.19;98163.63;5045374;28;20556;-69
2024/01/24 06:44:00;;;;;;;4.00;1.30;;;;;;;14.68;58.05;98166.84;5043793;28;20525;-70
2024/01/24 06:46:28;;;;;;;2.73;1.17;;;;;;;14.62;58.18;98161.34;5031646;28;20204;-69
2024/01/24 06:48:54;;;;;;;1.37;1.00;;;;;;;14.72;58.15;98156.84;5030482;28;20187;-71
2024/01/24 06:51:19;;;;;;;4.20;1.70;;;;;;;14.69;57.79;98162.41;5042827;28;22192;-68
2024/01/24 06:53:45;;;;;;;3.00;1.20;;;;;;;14.77;57.85;98162.44;5036385;28;20203;-69
2024/01/24 06:56:10;;;;;;;2.37;1.40;;;;;;;14.72;58.22;98151.56;5050122;28;20340;-69
2024/01/24 06:58:40;;;;;;;3.97;1.27;;;;;;;14.75;58.39;98145.94;5043012;28;20180;-69
2024/01/24 07:01:06;;;;;;;4.00;1.47;;;;;;;14.72;58.54;98152.38;5034731;28;20194;-68
2024/01/24 07:03:31;;;;;;;1.87;1.20;;;;;;;14.74;58.53;98139.03;5048357;28;20436;-69
2024/01/24 07:05:57;;;;;;;3.03;1.40;;;;;;;14.82;58.33;98144.34;5054242;28;20649;-70
2024/01/24 07:08:23;;;;;;;2.23;1.40;;;;;;;14.74;58.70;98150.41;5053912;28;20190;-69
2024/01/24 07:10:48;;;;;;;3.10;1.57;;;;;;;14.81;58.55;98141.84;5053223;28;20182;-70
2024/01/24 07:13:14;;;;;;;2.50;1.67;;;;;;;14.80;58.81;98127.84;5043363;28;20462;-69
2024/01/24 07:15:39;;;;;;;2.10;1.20;;;;;;;14.72;58.94;98127.81;5043970;28;20195;-70
2024/01/24 07:18:05;;;;;;;2.23;1.23;;;;;;;14.55;59.34;98125.03;5044898;28;20191;-69
2024/01/24 07:20:30;;;;;;;3.73;1.30;;;;;;;14.78;59.01;98113.16;5057786;28;20179;-72
2024/01/24 07:22:56;;;;;;;3.27;1.27;;;;;;;14.77;58.99;98104.41;5045100;28;20219;-72
2024/01/24 07:25:21;;;;;;;2.50;1.40;;;;;;;14.73;59.32;98111.00;5037128;28;20222;-69
2024/01/24 07:27:47;;;;;;;3.30;1.60;;;;;;;14.72;59.54;98119.88;5037860;28;20210;-68
2024/01/24 07:30:15;;;;;;;2.90;1.57;;;;;;;14.80;59.35;98138.41;5032146;28;20202;-69
2024/01/24 07:32:41;;;;;;;2.80;1.33;;;;;;;14.84;59.42;98144.19;5034105;28;20493;-72
2024/01/24 07:35:08;;;;;;;3.53;1.17;;;;;;;14.88;59.20;98151.63;5043955;28;21024;-70
2024/01/24 07:37:34;;;;;;;3.00;1.17;;;;;;;14.85;59.65;98140.56;5050012;28;20596;-69
2024/01/24 07:39:59;;;;;;;2.60;1.10;;;;;;;14.85;59.75;98130.84;5038601;28;20461;-70
2024/01/24 07:42:25;;;;;;;4.90;1.70;;;;;;;14.89;59.85;98136.63;5044439;28;20431;-70
2024/01/24 07:44:50;;;;;;;3.67;1.40;;;;;;;14.78;60.22;98142.19;5041313;28;20588;-70
2024/01/24 07:47:18;;;;;;;2.60;1.27;;;;;;;14.67;60.73;98140.59;5042152;28;20294;-71
2024/01/24 07:49:44;;;;;;;1.83;1.07;;;;;;;14.78;60.13;98126.34;5050325;28;20194;-71
2024/01/24 07:52:09;;;;;;;2.50;1.20;;;;;;;14.84;60.19;98133.63;5042764;28;20450;-70
2024/01/24 07:54:35;;;;;;;8.50;1.30;;;;;;;14.88;60.00;98142.91;5040109;28;20535;-71
2024/01/24 07:57:03;;;;;;;3.90;1.27;;;;;;;14.73;60.66;98140.84;5040994;28;20297;-71
2024/01/24 07:59:31;;;;;;;2.10;1.10;;;;;;;14.86;60.08;98137.78;5037713;28;20194;-71
2024/01/24 08:01:57;;;;;;;2.80;1.47;;;;;;;15.04;59.60;98134.22;5040225;28;20421;-70
2024/01/24 08:04:22;;;;;;;2.80;0.93;;;;;;;15.09;59.31;98142.50;5038697;28;20432;-70
2024/01/24 08:06:48;;;;;;;2.23;0.80;;;;;;;15.14;59.31;98147.31;5047613;28;20203;-70
2024/01/24 08:09:14;;;;;;;2.43;0.90;;;;;;;15.08;59.42;98142.66;5047595;28;20198;-69
2024/01/24 08:11:40;;;;;;;2.50;1.10;;;;;;;15.07;59.27;98149.75;5048831;28;20209;-70
2024/01/24 08:14:05;;;;;;;2.07;1.20;;;;;;;15.15;59.14;98156.88;5035888;28;20613;-70
2024/01/24 08:16:31;;;;;;;1.43;0.70;;;;;;;15.01;59.41;98161.78;5038302;28;20441;-70
2024/01/24 08:18:58;;;;;;;1.90;0.80;;;;;;;15.11;59.07;98172.22;5040563;28;20191;-72
2024/01/24 08:21:24;;;;;;;1.50;0.77;;;;;;;15.19;58.89;98169.59;5040654;28;20837;-69
2024/01/24 08:23:49;;;;;;;1.30;0.80;;;;;;;15.28;58.63;98167.00;5049258;28;20421;-69
2024/01/24 08:26:15;;;;;;;4.23;1.00;;;;;;;15.26;58.89;98147.84;5036779;28;20852;-69
2024/01/24 08:28:42;;;;;;;1.50;1.00;;;;;;;15.40;58.45;98178.94;5045115;28;20190;-70
2024/01/24 08:31:09;;;;;;;1.30;0.90;;;;;;;15.39;58.49;98168.53;5035186;28;20214;-69
2024/01/24 08:33:34;;;;;;;2.70;0.70;;;;;;;15.24;58.99;98155.13;5045337;28;20468;-70
2024/01/24 08:36:00;;;;;;;2.60;0.90;;;;;;;15.26;58.82;98155.75;5047550;28;20441;-70
2024/01/24 08:38:25;;;;;;;2.10;0.80;;;;;;;15.14;59.19;98145.47;5028270;28;20270;-70
2024/01/24 08:40:51;;;;;;;2.47;0.80;;;;;;;15.22;59.38;98157.09;5043152;28;20201;-69
2024/01/24 08:43:16;;;;;;;4.73;0.87;;;;;;;15.38;58.97;98151.84;5044223;28;20225;-71
2024/01/24 08:45:42;;;;;;;1.00;0.60;;;;;;;15.48;58.66;98147.28;5044887;28;20214;-72
2024/01/24 08:48:07;;;;;;;1.97;1.00;;;;;;;15.57;58.49;98165.78;5041944;28;20184;-70
2024/01/24 08:50:33;;;;;;;0.90;0.60;;;;;;;15.59;58.50;98166.44;5053903;28;20628;-70
2024/01/24 08:52:58;;;;;;;2.60;0.73;;;;;;;15.55;58.48;98167.75;5038803;28;20330;-73
2024/01/24 08:55:24;;;;;;;1.03;0.77;;;;;;;15.37;59.36;98174.00;5033611;28;20194;-70
2024/01/24 08:57:52;;;;;;;1.20;0.60;;;;;;;15.44;59.22;98175.00;5043970;28;20208;-70
2024/01/24 09:00:18;;;;;;;0.80;0.60;;;;;;;15.40;59.52;98176.28;5049652;28;20190;-72
2024/01/24 09:02:43;;;;;;;1.53;0.70;;;;;;;15.65;58.92;98174.56;5044939;28;20809;-69
2024/01/24 09:05:09;;;;;;;1.00;0.60;;;;;;;15.76;58.65;98175.25;5056650;28;20539;-70
2024/01/24 09:07:35;;;;;;;2.03;0.60;;;;;;;15.61;59.11;98189.06;5027743;28;20207;-72
2024/01/24 09:10:03;;;;;;;1.20;0.57;;;;;;;15.66;59.21;98199.16;5054764;28;20187;-69
2024/01/24 09:12:30;;;;;;;1.73;0.60;;;;;;;15.78;58.96;98189.94;5055862;28;20252;-69
2024/01/24 09:14:56;;;;;;;1.93;0.60;;;;;;;15.79;59.07;98199.53;5049187;28;20829;-70
2024/01/24 09:17:21;;;;;;;1.13;0.73;;;;;;;15.78;59.07;98205.81;5047401;28;20508;-69
2024/01/24 09:19:47;;;;;;;1.20;0.60;;;;;;;15.80;58.95;98218.88;5050098;28;20230;-70
2024/01/24 09:22:12;;;;;;;1.03;0.83;;;;;;;15.86;59.02;98222.72;5063124;28;20190;-70
2024/01/24 09:24:38;;;;;;;2.40;0.80;;;;;;;15.85;58.97;98219.22;5049912;28;20198;-70
2024/01/24 09:27:03;;;;;;;2.40;0.73;;;;;;;15.85;58.99;98211.31;5041338;28;20251;-70
2024/01/24 09:29:29;;;;;;;2.20;1.20;;;;;;;15.82;59.28;98201.84;5050056;28;20536;-69
2024/01/24 09:31:54;;;;;;;1.20;0.90;;;;;;;15.82;59.35;98214.22;5043262;28;20198;-70
2024/01/24 09:34:20;;;;;;;1.20;0.70;;;;;;;15.83;59.41;98215.88;5054630;28;20265;-71
2024/01/24 09:36:46;;;;;;;1.20;0.70;;;;;;;15.83;59.82;98218.53;5063547;28;20201;-71
2024/01/24 09:39:11;;;;;;;1.10;0.57;;;;;;;15.79;60.29;98218.03;5055294;28;20187;-69
2024/01/24 09:41:42;;;;;;;2.20;0.70;;;;;;;15.86;60.62;98210.31;5044020;28;20209;-71
2024/01/24 09:44:08;;;;;;;1.90;0.80;;;;;;;15.59;61.66;98211.38;5051746;28;20286;-70
2024/01/24 09:46:38;;;;;;;1.90;0.60;;;;;;;15.68;61.81;98213.03;5046224;28;20461;-70
2024/01/24 09:49:07;;;;;;;2.40;0.70;;;;;;;15.80;61.54;98200.38;5044838;28;20468;-70
2024/01/24 09:51:34;;;;;;;2.37;1.23;;;;;;;15.88;61.24;98200.41;5055167;28;20433;-71
2024/01/24 09:54:07;;;;;;;2.70;0.70;;;;;;;15.87;61.26;98197.94;5045801;28;20586;-71
2024/01/24 09:56:34;;;;;;;1.30;0.57;;;;;;;15.85;61.43;98197.28;5041761;28;20467;-70
2024/01/24 09:59:01;;;;;;;2.93;0.73;;;;;;;15.73;61.48;98197.53;5062795;28;20444;-70
2024/01/24 10:01:30;;;;;;;2.50;0.60;;;;;;;15.99;60.89;98194.00;5039991;28;20543;-70
2024/01/24 10:03:55;;;;;;;1.30;0.60;;;;;;;15.87;61.12;98192.66;5058698;28;20520;-69
2024/01/24 10:06:21;;;;;;;1.10;0.60;;;;;;;16.09;60.59;98191.19;5058948;28;20484;-71
2024/01/24 10:08:46;;;;;;;2.13;0.67;;;;;;;16.20;60.14;98198.78;5054769;28;20191;-70
2024/01/24 10:11:12;;;;;;;2.03;0.60;;;;;;;16.26;59.82;98202.59;5051032;28;20197;-69
2024/01/24 10:13:38;;;;;;;1.07;0.50;;;;;;;16.22;59.66;98196.81;5048242;28;20211;-69
2024/01/24 10:16:05;;;;;;;0.90;0.60;;;;;;;16.09;59.83;98225.56;5059077;28;20226;-70
2024/01/24 10:18:31;;;;;;;0.80;0.50;;;;;;;16.04;59.96;98228.69;5052785;28;20199;-69
2024/01/24 10:20:56;;;;;;;1.23;0.77;;;;;;;16.30;59.51;98219.81;5048897;28;20517;-69
2024/01/24 10:23:22;;;;;;;2.40;0.57;;;;;;;16.37;59.96;98198.81;5057297;28;20229;-70
2024/01/24 10:25:47;;;;;;;0.80;0.50;;;;;;;16.51;58.37;98199.97;5054705;28;20722;-69
2024/01/24 10:28:13;;;;;;;0.80;0.53;;;;;;;16.88;57.52;98193.31;5048811;28;20198;-69
2024/01/24 10:30:42;;;;;;;0.77;0.47;;;;;;;16.90;57.19;98183.38;5048053;28;20187;-69
2024/01/24 10:33:12;;;;;;;1.00;0.60;;;;;;;17.31;56.18;98207.13;5044425;28;20532;-70
2024/01/24 10:35:40;;;;;;;0.80;0.60;;;;;;;17.40;55.69;98209.72;5054440;28;20458;-70
2024/01/24 10:38:10;;;;;;;0.90;0.60;;;;;;;17.48;55.40;98212.38;5052472;28;20482;-71
2024/01/24 10:40:35;;;;;;;1.20;0.60;;;;;;;17.47;55.34;98218.66;5043634;28;20516;-70
2024/01/24 10:43:07;;;;;;;1.00;0.50;;;;;;;17.38;55.27;98225.00;5052509;28;20519;-71
2024/01/24 10:45:33;;;;;;;1.03;0.50;;;;;;;16.91;56.14;98240.63;5044613;28;20188;-70
2024/01/24 10:47:59;;;;;;;0.80;0.50;;;;;;;17.13;55.98;98223.25;5039156;28;20426;-70
2024/01/24 10:50:25;;;;;;;0.80;0.43;;;;;;;17.17;56.22;98231.66;5056849;28;20436;-69
2024/01/24 10:52:51;;;;;;;1.00;0.70;;;;;;;17.32;55.62;98219.38;5055146;28;20206;-70
2024/01/24 10:55:17;;;;;;;1.43;0.50;;;;;;;16.93;56.29;98225.41;5031848;28;20199;-70
2024/01/24 10:57:43;;;;;;;0.80;0.50;;;;;;;16.68;56.93;98217.50;5049687;28;20463;-70
2024/01/24 11:00:15;;;;;;;4.00;0.50;;;;;;;16.74;57.18;98206.25;5034049;28;20186;-70
2024/01/24 11:02:41;;;;;;;0.80;0.50;;;;;;;16.60;57.87;98196.34;5051609;28;20425;-70
2024/01/24 11:05:09;;;;;;;1.40;0.50;;;;;;;16.56;58.78;98205.59;5045051;28;20513;-71
2024/01/24 11:07:43;;;;;;;0.80;0.50;;;;;;;16.67;58.87;98218.47;5043755;28;20217;-71
2024/01/24 11:10:27;;;;;;;0.97;0.50;;;;;;;16.51;59.93;98227.25;5043536;28;20458;-72
2024/01/24 11:12:52;;;;;;;1.13;0.60;;;;;;;16.50;60.78;98224.78;5049515;28;20695;-70
2024/01/24 11:15:18;;;;;;;1.10;0.50;;;;;;;16.39;61.50;98218.81;5052886;28;20429;-72
2024/01/24 11:17:46;;;;;;;0.80;0.40;;;;;;;16.28;62.02;98227.06;5046162;28;20211;-70
2024/01/24 11:20:12;;;;;;;0.90;0.50;;;;;;;16.17;62.47;98224.75;5056433;28;20560;-71
2024/01/24 11:22:37;;;;;;;1.77;0.50;;;;;;;16.11;62.89;98224.44;5035825;28;20437;-72
2024/01/24 11:25:04;;;;;;;1.00;0.60;;;;;;;16.09;62.92;98218.47;5055255;28;20456;-71
2024/01/24 11:27:36;;;;;;;1.23;0.67;;;;;;;16.15;62.91;98232.00;5055695;28;20206;-70
2024/01/24 11:30:11;;;;;;;1.73;0.97;;;;;;;16.12;62.88;98233.19;5042501;28;20441;-71
2024/01/24 11:32:54;;;;;;;1.83;0.67;;;;;;;16.10;63.06;98217.47;5047779;28;21102;-71